createdAt,value
2022-10-05T00:02:26.120Z,93.34
2022-10-05T00:05:31.912Z,95.06
2022-10-05T00:08:35.167Z,96.01
2022-10-05T00:11:37.060Z,95.06
2022-10-05T00:14:39.630Z,91.43
2022-10-05T00:17:42.630Z,93.01
2022-10-05T00:20:45.220Z,93.90
2022-10-05T00:23:47.177Z,96.08
2022-10-05T00:26:55.419Z,97.77
2022-10-05T00:30:02.743Z,98.94
2022-10-05T00:33:04.495Z,99.46
2022-10-05T00:36:07.229Z,99.85
2022-10-05T00:39:09.476Z,99.94
2022-10-05T00:42:28.056Z,100.00
2022-10-05T00:45:54.764Z,100.00
2022-10-05T00:49:13.609Z,100.00
2022-10-05T00:52:27.321Z,100.00
2022-10-05T00:56:00.336Z,100.00
2022-10-05T00:59:17.469Z,100.00
2022-10-05T01:02:36.533Z,100.00
2022-10-05T01:05:55.768Z,100.00
2022-10-05T01:09:29.872Z,100.00
2022-10-05T01:12:34.562Z,100.00
2022-10-05T01:15:46.851Z,100.00
2022-10-05T01:19:06.662Z,100.00
2022-10-05T01:22:57.926Z,100.00
2022-10-05T01:26:30.519Z,100.00
2022-10-05T01:29:43.791Z,100.00
2022-10-05T01:33:04.343Z,100.00
2022-10-05T01:36:49.095Z,100.00
2022-10-05T01:39:57.047Z,100.00
2022-10-05T01:43:12.911Z,100.00
2022-10-05T01:46:44.491Z,100.00
2022-10-05T01:50:02.771Z,100.00
2022-10-05T01:53:23.106Z,100.00
2022-10-05T01:56:43.196Z,100.00
2022-10-05T02:00:20.828Z,100.00
2022-10-05T02:03:27.785Z,100.00
2022-10-05T02:06:39.028Z,100.00
2022-10-05T02:09:52.001Z,100.00
2022-10-05T02:13:10.605Z,100.00
2022-10-05T02:16:17.698Z,100.00
2022-10-05T02:19:36.645Z,100.00
2022-10-05T02:22:46.170Z,100.00
2022-10-05T02:25:51.172Z,100.00
2022-10-05T02:28:58.730Z,100.00
2022-10-05T02:32:05.653Z,100.00
2022-10-05T02:35:15.601Z,100.00
2022-10-05T02:38:56.003Z,100.00
2022-10-05T02:42:12.814Z,100.00
2022-10-05T02:45:29.468Z,100.00
2022-10-05T02:49:06.621Z,100.00
2022-10-05T02:52:17.790Z,100.00
2022-10-05T02:55:41.432Z,100.00
2022-10-05T02:58:50.249Z,100.00
2022-10-05T03:02:04.834Z,100.00
2022-10-05T03:05:33.976Z,100.00
2022-10-05T03:08:46.904Z,100.00
2022-10-05T03:12:33.678Z,100.00
2022-10-05T03:16:13.213Z,100.00
2022-10-05T03:19:27.271Z,100.00
2022-10-05T03:22:38.262Z,100.00
2022-10-05T03:25:52.936Z,100.00
2022-10-05T03:29:08.212Z,100.00
2022-10-05T03:32:28.999Z,100.00
2022-10-05T03:36:14.698Z,100.00
2022-10-05T03:39:29.876Z,100.00
2022-10-05T03:42:51.897Z,100.00
2022-10-05T03:46:02.220Z,100.00
2022-10-05T03:49:22.642Z,100.00
2022-10-05T03:52:41.703Z,100.00
2022-10-05T03:56:05.422Z,100.00
2022-10-05T03:59:32.606Z,100.00
2022-10-05T04:02:46.100Z,100.00
2022-10-05T04:05:56.809Z,100.00
2022-10-05T04:09:03.668Z,100.00
2022-10-05T04:12:33.793Z,100.00
2022-10-05T04:15:42.528Z,100.00
2022-10-05T04:18:59.341Z,99.04
2022-10-05T04:22:08.344Z,96.32
2022-10-05T04:25:17.014Z,95.40
2022-10-05T04:28:32.572Z,90.64
2022-10-05T04:31:54.740Z,90.08
2022-10-05T04:35:18.459Z,89.21
2022-10-05T04:38:47.782Z,88.66
2022-10-05T04:42:09.472Z,88.61
2022-10-05T04:45:24.629Z,87.74
2022-10-05T04:49:04.411Z,86.64
2022-10-05T04:52:37.258Z,86.24
2022-10-05T04:55:57.968Z,86.08
2022-10-05T04:59:20.915Z,86.83
2022-10-05T05:02:41.466Z,86.52
2022-10-05T05:06:16.351Z,86.93
2022-10-05T05:09:53.716Z,89.73
2022-10-05T05:13:38.003Z,91.26
2022-10-05T05:16:43.289Z,93.19
2022-10-05T05:20:17.127Z,95.71
2022-10-05T05:23:37.835Z,97.13
2022-10-05T05:27:16.085Z,95.18
2022-10-05T05:30:33.176Z,98.51
2022-10-05T05:33:53.847Z,98.16
2022-10-05T05:37:11.757Z,98.13
2022-10-05T05:40:21.509Z,99.62
2022-10-05T05:44:10.367Z,98.41
2022-10-05T05:47:20.252Z,97.49
2022-10-05T05:50:30.430Z,92.27
2022-10-05T05:53:46.161Z,92.59
2022-10-05T05:57:00.464Z,91.48
2022-10-05T06:00:03.747Z,91.22
2022-10-05T06:03:28.163Z,90.37
2022-10-05T06:06:38.429Z,90.51
2022-10-05T06:09:46.053Z,89.52
2022-10-05T06:13:14.682Z,89.50
2022-10-05T06:16:36.174Z,89.72
2022-10-05T06:19:40.186Z,91.46
2022-10-05T06:22:46.015Z,92.97
2022-10-05T06:26:10.918Z,91.98
2022-10-05T06:29:21.296Z,92.52
2022-10-05T06:32:56.908Z,92.03
2022-10-05T06:36:32.552Z,91.76
2022-10-05T06:39:38.527Z,94.38
2022-10-05T06:43:06.199Z,95.09
2022-10-05T06:46:32.622Z,95.04
2022-10-05T06:50:03.961Z,95.03
2022-10-05T06:53:51.627Z,96.50
2022-10-05T06:57:38.126Z,97.37
2022-10-05T07:00:50.599Z,96.37
2022-10-05T07:04:36.924Z,92.53
2022-10-05T07:07:55.341Z,92.43
2022-10-05T07:11:37.729Z,91.22
2022-10-05T07:15:16.785Z,88.82
2022-10-05T07:18:28.177Z,88.43
2022-10-05T07:21:35.795Z,88.55
2022-10-05T07:25:10.710Z,88.19
2022-10-05T07:28:24.743Z,86.67
2022-10-05T07:31:35.028Z,86.47
2022-10-05T07:35:03.008Z,84.02
2022-10-05T07:38:18.785Z,85.25
2022-10-05T07:41:36.159Z,84.11
2022-10-05T07:44:46.575Z,83.56
2022-10-05T07:47:55.087Z,83.70
2022-10-05T07:51:07.083Z,83.34
2022-10-05T07:54:08.875Z,84.73
2022-10-05T07:57:23.682Z,82.62
2022-10-05T08:00:42.590Z,81.93
2022-10-05T08:04:15.486Z,82.12
2022-10-05T08:07:18.251Z,81.21
2022-10-05T08:10:31.357Z,82.31
2022-10-05T08:13:47.273Z,78.16
2022-10-05T08:16:55.360Z,78.16
2022-10-05T08:20:14.113Z,79.22
2022-10-05T08:23:38.731Z,76.43
2022-10-05T08:27:05.337Z,75.93
2022-10-05T08:30:12.571Z,76.71
2022-10-05T08:33:17.818Z,74.51
2022-10-05T08:36:29.158Z,75.13
2022-10-05T08:39:37.405Z,76.92
2022-10-05T08:43:00.816Z,76.11
2022-10-05T08:46:24.094Z,76.63
2022-10-05T08:49:35.430Z,77.73
2022-10-05T08:52:55.553Z,78.08
2022-10-05T08:55:57.107Z,79.80
2022-10-05T08:59:30.936Z,80.95
2022-10-05T09:03:06.782Z,75.34
2022-10-05T09:06:33.630Z,76.78
2022-10-05T09:10:04.834Z,76.64
2022-10-05T09:13:36.097Z,73.03
2022-10-05T09:16:53.514Z,75.69
2022-10-05T09:20:17.147Z,75.96
2022-10-05T09:23:44.768Z,74.20
2022-10-05T09:27:12.933Z,74.41
2022-10-05T09:30:42.158Z,73.39
2022-10-05T09:34:18.859Z,71.90
2022-10-05T09:37:44.438Z,73.50
2022-10-05T09:41:22.972Z,71.99
2022-10-05T09:45:04.410Z,73.52
2022-10-05T09:48:25.956Z,74.23
2022-10-05T09:51:48.982Z,75.94
2022-10-05T09:55:28.751Z,75.86
2022-10-05T09:58:45.988Z,76.59
2022-10-05T10:02:27.490Z,74.01
2022-10-05T10:05:41.533Z,72.21
2022-10-05T10:09:27.269Z,77.47
2022-10-05T10:12:41.264Z,75.51
2022-10-05T10:15:53.602Z,71.54
2022-10-05T10:19:16.916Z,73.38
2022-10-05T10:22:56.420Z,66.14
2022-10-05T10:26:22.126Z,65.28
2022-10-05T10:29:48.305Z,64.55
2022-10-05T10:32:52.889Z,64.39
2022-10-05T10:36:26.684Z,65.68
2022-10-05T10:39:50.496Z,65.08
2022-10-05T10:43:11.187Z,64.59
2022-10-05T10:46:31.421Z,63.45
2022-10-05T10:49:39.216Z,67.53
2022-10-05T10:52:53.829Z,64.96
2022-10-05T10:56:20.357Z,62.48
2022-10-05T10:59:43.882Z,63.49
2022-10-05T11:03:03.451Z,63.08
2022-10-05T11:06:08.338Z,65.27
2022-10-05T11:09:31.893Z,63.36
2022-10-05T11:12:39.963Z,61.57
2022-10-05T11:15:55.493Z,64.87
2022-10-05T11:19:40.586Z,61.75
2022-10-05T11:23:17.273Z,61.60
2022-10-05T11:26:47.255Z,61.21
2022-10-05T11:30:16.199Z,60.99
2022-10-05T11:33:18.010Z,59.84
2022-10-05T11:36:35.174Z,59.62
2022-10-05T11:39:46.220Z,58.31
2022-10-05T11:42:49.249Z,57.90
2022-10-05T11:45:59.529Z,55.47
2022-10-05T11:49:20.179Z,52.64
2022-10-05T11:52:40.458Z,51.14
2022-10-05T11:56:06.665Z,52.25
2022-10-05T11:59:26.943Z,51.88
2022-10-05T12:02:43.874Z,50.95
2022-10-05T12:06:10.403Z,50.15
2022-10-05T12:09:34.808Z,50.20
2022-10-05T12:12:51.886Z,50.37
2022-10-05T12:15:53.549Z,50.54
2022-10-05T12:19:19.197Z,50.11
2022-10-05T12:22:39.653Z,48.19
2022-10-05T12:26:04.248Z,47.68
2022-10-05T12:29:36.300Z,49.33
2022-10-05T12:33:02.593Z,46.66
2022-10-05T12:36:17.920Z,48.03
2022-10-05T12:39:50.647Z,48.12
2022-10-05T12:43:12.939Z,47.39
2022-10-05T12:46:23.800Z,47.47
2022-10-05T12:49:36.629Z,46.25
2022-10-05T12:52:57.373Z,46.88
2022-10-05T12:56:08.172Z,47.79
2022-10-05T12:59:28.517Z,46.04
2022-10-05T13:02:37.078Z,46.00
2022-10-05T13:05:59.069Z,46.49
2022-10-05T13:09:10.244Z,44.65
2022-10-05T13:12:46.126Z,46.20
2022-10-05T13:15:47.642Z,44.47
2022-10-05T13:19:36.413Z,46.03
2022-10-05T13:22:46.626Z,45.20
2022-10-05T13:26:18.977Z,44.84
2022-10-05T13:29:52.234Z,44.76
2022-10-05T13:33:18.027Z,44.75
2022-10-05T13:36:25.559Z,43.10
2022-10-05T13:39:46.701Z,43.26
2022-10-05T13:43:00.276Z,43.30
2022-10-05T13:46:09.860Z,42.61
2022-10-05T13:49:29.456Z,43.06
2022-10-05T13:52:46.600Z,42.10
2022-10-05T13:56:00.272Z,41.44
2022-10-05T13:59:24.172Z,40.64
2022-10-05T14:02:31.869Z,41.44
2022-10-05T14:05:33.527Z,40.47
2022-10-05T14:08:52.499Z,41.62
2022-10-05T14:12:03.370Z,40.78
2022-10-05T14:15:22.210Z,41.12
2022-10-05T14:18:27.311Z,41.47
2022-10-05T14:21:30.740Z,40.50
2022-10-05T14:24:44.529Z,39.29
2022-10-05T14:28:12.281Z,39.93
2022-10-05T14:31:26.496Z,39.34
2022-10-05T14:34:34.851Z,40.13
2022-10-05T14:37:48.059Z,38.19
2022-10-05T14:41:08.085Z,38.13
2022-10-05T14:44:09.642Z,38.56
2022-10-05T14:47:22.649Z,37.93
2022-10-05T14:50:26.406Z,37.23
2022-10-05T14:54:14.882Z,37.64
2022-10-05T14:57:25.868Z,38.14
2022-10-05T15:00:32.781Z,37.89
2022-10-05T15:03:37.055Z,37.03
2022-10-05T15:06:44.913Z,38.37
2022-10-05T15:10:27.091Z,37.85
2022-10-05T15:13:34.221Z,38.39
2022-10-05T15:16:39.106Z,38.83
2022-10-05T15:19:59.272Z,38.47
2022-10-05T15:23:15.349Z,39.50
2022-10-05T15:26:17.604Z,39.79
2022-10-05T15:29:42.478Z,39.84
2022-10-05T15:33:25.258Z,39.66
2022-10-05T15:36:47.931Z,40.17
2022-10-05T15:39:55.637Z,39.64
2022-10-05T15:43:03.718Z,41.03
2022-10-05T15:46:15.761Z,40.53
2022-10-05T15:49:47.627Z,40.84
2022-10-05T15:53:08.078Z,41.56
2022-10-05T15:56:22.129Z,41.90
2022-10-05T15:59:46.642Z,42.33
2022-10-05T16:02:52.142Z,42.31
2022-10-05T16:06:15.268Z,42.51
2022-10-05T16:09:32.134Z,42.95
2022-10-05T16:12:52.165Z,42.94
2022-10-05T16:16:22.589Z,43.39
2022-10-05T16:19:40.342Z,44.04
2022-10-05T16:22:50.855Z,43.22
2022-10-05T16:26:07.877Z,43.14
2022-10-05T16:29:32.946Z,43.76
2022-10-05T16:32:46.390Z,44.47
2022-10-05T16:36:11.339Z,44.31
2022-10-05T16:39:27.532Z,45.18
2022-10-05T16:42:35.701Z,46.74
2022-10-05T16:45:53.059Z,46.17
2022-10-05T16:49:32.745Z,47.96
